createdAt,value
2023-09-02T00:00:14.574Z,68.13
2023-09-02T00:02:47.180Z,68.41
2023-09-02T00:05:19.921Z,68.33
2023-09-02T00:07:52.437Z,68.61
2023-09-02T00:10:24.941Z,68.53
2023-09-02T00:12:57.524Z,68.34
2023-09-02T00:15:30.360Z,68.52
2023-09-02T00:18:03.031Z,68.40
2023-09-02T00:20:35.702Z,69.02
2023-09-02T00:23:08.214Z,68.67
2023-09-02T00:25:40.659Z,68.82
2023-09-02T00:28:13.246Z,68.63
2023-09-02T00:30:45.708Z,68.47
2023-09-02T00:33:18.313Z,68.41
2023-09-02T00:35:51.089Z,68.41
2023-09-02T00:38:23.924Z,68.03
2023-09-02T00:41:01.834Z,68.18
2023-09-02T00:43:35.064Z,68.42
2023-09-02T00:46:09.656Z,68.74
2023-09-02T00:48:42.797Z,68.49
2023-09-02T00:51:15.345Z,68.71
2023-09-02T00:53:47.766Z,68.32
2023-09-02T00:56:20.809Z,68.70
2023-09-02T00:58:56.632Z,69.24
2023-09-02T01:01:32.616Z,68.99
2023-09-02T01:04:05.601Z,69.76
2023-09-02T01:06:39.520Z,69.24
2023-09-02T01:09:12.327Z,69.66
2023-09-02T01:11:44.850Z,68.94
2023-09-02T01:14:17.657Z,69.41
2023-09-02T01:16:51.083Z,69.35
2023-09-02T01:19:23.599Z,69.05
2023-09-02T01:22:11.971Z,68.95
2023-09-02T01:24:52.208Z,68.80
2023-09-02T01:27:53.356Z,69.02
2023-09-02T01:30:30.167Z,69.16
2023-09-02T01:33:07.241Z,68.77
2023-09-02T01:35:41.040Z,68.94
2023-09-02T01:38:15.410Z,68.96
2023-09-02T01:40:51.572Z,68.79
2023-09-02T01:43:25.889Z,69.12
2023-09-02T01:45:59.445Z,68.98
2023-09-02T01:48:32.273Z,69.08
2023-09-02T01:51:05.570Z,69.10
2023-09-02T01:53:38.227Z,69.28
2023-09-02T01:56:11.505Z,69.06
2023-09-02T01:58:44.049Z,69.10
2023-09-02T02:01:17.129Z,68.87
2023-09-02T02:04:16.482Z,68.88
2023-09-02T02:06:53.870Z,68.60
2023-09-02T02:09:33.634Z,68.71
2023-09-02T02:12:08.349Z,68.63
2023-09-02T02:14:41.065Z,68.49
2023-09-02T02:17:14.406Z,68.70
2023-09-02T02:19:46.979Z,68.70
2023-09-02T02:22:20.223Z,68.67
2023-09-02T02:24:52.709Z,68.83
2023-09-02T02:27:25.219Z,68.94
2023-09-02T02:29:58.899Z,68.75
2023-09-02T02:32:31.481Z,68.74
2023-09-02T02:35:04.409Z,68.63
2023-09-02T02:37:36.948Z,68.71
2023-09-02T02:40:10.020Z,68.90
2023-09-02T02:42:42.585Z,68.59
2023-09-02T02:45:15.200Z,68.72
2023-09-02T02:47:47.736Z,68.97
2023-09-02T02:50:20.214Z,68.57
2023-09-02T02:52:52.819Z,68.77
2023-09-02T02:55:25.324Z,68.42
2023-09-02T02:57:58.004Z,68.57
2023-09-02T03:00:33.501Z,68.48
2023-09-02T03:03:06.189Z,68.38
2023-09-02T03:05:43.745Z,68.37
2023-09-02T03:08:16.206Z,68.51
2023-09-02T03:10:59.840Z,68.36
2023-09-02T03:13:35.085Z,67.98
2023-09-02T03:16:07.858Z,67.85
2023-09-02T03:18:41.979Z,68.04
2023-09-02T03:21:14.475Z,68.03
2023-09-02T03:23:47.535Z,68.07
2023-09-02T03:26:21.261Z,68.02
2023-09-02T03:28:54.756Z,68.11
2023-09-02T03:31:27.500Z,68.32
2023-09-02T03:34:00.131Z,68.10
2023-09-02T03:36:32.705Z,68.27
2023-09-02T03:39:05.973Z,68.10
2023-09-02T03:41:39.166Z,68.02
2023-09-02T03:44:11.801Z,68.24
2023-09-02T03:46:44.427Z,68.29
2023-09-02T03:49:16.980Z,68.39
2023-09-02T03:51:49.453Z,68.32
2023-09-02T03:54:22.000Z,68.13
2023-09-02T03:56:54.492Z,68.22
2023-09-02T03:59:27.016Z,68.29
2023-09-02T04:01:59.523Z,68.29
2023-09-02T04:04:32.067Z,67.98
2023-09-02T04:07:04.545Z,68.14
2023-09-02T04:09:37.095Z,68.07
2023-09-02T04:12:09.563Z,68.40
2023-09-02T04:14:42.027Z,68.38
2023-09-02T04:17:14.550Z,67.96
2023-09-02T04:19:47.082Z,68.18
2023-09-02T04:22:19.610Z,67.88
2023-09-02T04:24:52.195Z,68.01
2023-09-02T04:27:24.664Z,67.84
2023-09-02T04:29:57.111Z,67.90
2023-09-02T04:32:29.719Z,67.85
2023-09-02T04:35:03.541Z,67.65
2023-09-02T04:37:36.093Z,67.86
2023-09-02T04:40:10.602Z,67.83
2023-09-02T04:42:43.106Z,67.81
2023-09-02T04:45:15.686Z,68.04
2023-09-02T04:47:48.222Z,68.10
2023-09-02T04:50:21.642Z,67.99
2023-09-02T04:52:54.431Z,67.98
2023-09-02T04:55:27.664Z,67.80
2023-09-02T04:58:00.608Z,67.97
2023-09-02T05:00:34.792Z,68.03
2023-09-02T05:03:09.615Z,67.84
2023-09-02T05:05:42.456Z,67.75
2023-09-02T05:08:15.018Z,68.13
2023-09-02T05:10:47.581Z,68.11
2023-09-02T05:13:20.464Z,68.07
2023-09-02T05:15:53.294Z,68.15
2023-09-02T05:18:25.840Z,67.82
2023-09-02T05:20:58.495Z,68.27
2023-09-02T05:23:31.105Z,68.87
2023-09-02T05:26:03.864Z,68.43
2023-09-02T05:28:36.513Z,68.07
2023-09-02T05:31:09.455Z,67.95
2023-09-02T05:33:41.960Z,68.10
2023-09-02T05:36:14.575Z,67.99
2023-09-02T05:38:47.294Z,67.82
2023-09-02T05:41:19.996Z,68.10
2023-09-02T05:43:52.566Z,67.81
2023-09-02T05:46:25.301Z,67.91
2023-09-02T05:48:57.886Z,67.82
2023-09-02T05:51:30.830Z,67.78
2023-09-02T05:54:03.958Z,67.61
2023-09-02T05:56:37.672Z,67.76
2023-09-02T05:59:10.342Z,67.37
2023-09-02T06:01:44.402Z,67.30
2023-09-02T06:04:17.213Z,66.66
2023-09-02T06:06:49.654Z,66.52
2023-09-02T06:09:22.229Z,66.43
2023-09-02T06:11:54.979Z,66.43
2023-09-02T06:14:27.545Z,65.75
2023-09-02T06:17:00.098Z,65.25
2023-09-02T06:19:32.662Z,65.25
2023-09-02T06:22:05.291Z,65.00
2023-09-02T06:24:37.918Z,65.02
2023-09-02T06:27:10.465Z,64.36
2023-09-02T06:29:45.968Z,64.29
2023-09-02T06:32:18.469Z,64.28
2023-09-02T06:34:51.380Z,63.90
2023-09-02T06:37:23.874Z,63.63
2023-09-02T06:39:56.461Z,63.25
2023-09-02T06:42:29.053Z,62.89
2023-09-02T06:45:01.635Z,62.17
2023-09-02T06:47:34.245Z,62.23
2023-09-02T06:50:07.528Z,62.51
2023-09-02T06:52:40.073Z,62.40
2023-09-02T06:55:12.552Z,62.53
2023-09-02T06:57:45.641Z,62.04
2023-09-02T07:00:18.168Z,62.09
2023-09-02T07:02:50.902Z,62.31
2023-09-02T07:05:23.378Z,61.79
2023-09-02T07:07:56.012Z,61.76
2023-09-02T07:10:28.490Z,61.84
2023-09-02T07:13:00.974Z,61.31
2023-09-02T07:15:33.653Z,61.16
2023-09-02T07:18:06.313Z,61.19
2023-09-02T07:20:38.987Z,60.76
2023-09-02T07:23:11.442Z,61.16
2023-09-02T07:25:43.953Z,60.28
2023-09-02T07:28:16.404Z,60.37
2023-09-02T07:30:49.029Z,59.48
2023-09-02T07:33:21.769Z,59.31
2023-09-02T07:35:54.646Z,59.02
2023-09-02T07:38:27.730Z,59.14
2023-09-02T07:41:00.242Z,58.92
2023-09-02T07:43:33.259Z,59.19
2023-09-02T07:46:06.074Z,59.24
2023-09-02T07:48:38.670Z,58.97
2023-09-02T07:51:11.087Z,59.64
2023-09-02T07:53:43.609Z,59.37
2023-09-02T07:56:16.728Z,59.54
2023-09-02T07:58:50.229Z,59.47
2023-09-02T08:01:22.896Z,59.68
2023-09-02T08:03:55.369Z,59.59
2023-09-02T08:06:27.841Z,59.45
2023-09-02T08:09:01.377Z,59.05
2023-09-02T08:11:33.893Z,58.20
2023-09-02T08:14:06.406Z,58.36
2023-09-02T08:16:38.820Z,57.87
2023-09-02T08:19:11.320Z,58.61
2023-09-02T08:21:43.793Z,58.97
2023-09-02T08:24:16.328Z,59.37
2023-09-02T08:26:48.795Z,58.95
2023-09-02T08:29:21.293Z,58.84
2023-09-02T08:31:54.819Z,58.07
2023-09-02T08:34:27.517Z,58.20
2023-09-02T08:37:00.059Z,58.00
2023-09-02T08:39:32.641Z,58.83
2023-09-02T08:42:06.179Z,58.04
2023-09-02T08:44:39.692Z,58.64
2023-09-02T08:47:12.566Z,58.77
2023-09-02T08:49:45.491Z,57.39
2023-09-02T08:52:18.698Z,57.66
2023-09-02T08:54:52.521Z,57.17
2023-09-02T08:57:25.113Z,56.86
2023-09-02T08:59:57.832Z,56.38
2023-09-02T09:02:30.638Z,56.72
2023-09-02T09:05:04.610Z,56.97
2023-09-02T09:07:41.717Z,56.65
2023-09-02T09:10:17.134Z,56.37
2023-09-02T09:12:52.270Z,55.93
2023-09-02T09:15:25.506Z,55.60
2023-09-02T09:17:58.415Z,56.63
2023-09-02T09:20:32.442Z,55.91
2023-09-02T09:23:10.935Z,55.71
2023-09-02T09:25:43.674Z,55.98
2023-09-02T09:28:16.691Z,56.14
2023-09-02T09:30:49.158Z,55.47
2023-09-02T09:33:22.056Z,54.51
2023-09-02T09:36:11.144Z,54.26
2023-09-02T09:38:43.903Z,54.31
2023-09-02T09:41:16.453Z,55.38
2023-09-02T09:44:11.458Z,55.81
2023-09-02T09:46:43.902Z,55.83
2023-09-02T09:49:23.564Z,54.76
2023-09-02T09:52:10.344Z,54.60
2023-09-02T09:54:46.827Z,53.08
2023-09-02T09:57:38.768Z,53.07
2023-09-02T10:00:16.133Z,53.58
2023-09-02T10:02:56.486Z,54.85
2023-09-02T10:05:34.165Z,52.90
2023-09-02T10:08:08.380Z,54.03
2023-09-02T10:10:41.471Z,54.15
2023-09-02T10:13:14.152Z,54.31
2023-09-02T10:15:48.388Z,53.85
2023-09-02T10:18:24.498Z,53.58
2023-09-02T10:20:57.276Z,53.73
2023-09-02T10:23:30.138Z,52.73
2023-09-02T10:26:15.810Z,52.75
2023-09-02T10:28:50.683Z,52.90
2023-09-02T10:31:26.044Z,52.50
2023-09-02T10:34:04.398Z,52.64
2023-09-02T10:36:40.025Z,52.62
2023-09-02T10:39:22.453Z,52.79
2023-09-02T10:41:56.861Z,52.06
2023-09-02T10:44:30.592Z,51.69
2023-09-02T10:47:04.160Z,52.08
2023-09-02T10:49:37.544Z,52.42
2023-09-02T10:52:13.776Z,50.38
2023-09-02T10:55:03.106Z,50.51
2023-09-02T10:57:57.186Z,50.75
2023-09-02T11:00:30.085Z,51.76
2023-09-02T11:03:02.714Z,51.58
2023-09-02T11:06:07.708Z,52.12
2023-09-02T11:08:51.025Z,52.27
2023-09-02T11:11:23.822Z,50.96
2023-09-02T11:14:08.956Z,51.95
2023-09-02T11:16:44.148Z,52.10
2023-09-02T11:19:16.670Z,53.41
2023-09-02T11:21:49.353Z,53.97
2023-09-02T11:24:24.088Z,54.28
2023-09-02T11:26:58.770Z,55.39
2023-09-02T11:29:31.832Z,55.70
2023-09-02T11:32:05.914Z,55.64
2023-09-02T11:34:38.554Z,55.75
2023-09-02T11:37:12.408Z,55.21
2023-09-02T11:39:46.236Z,55.44
2023-09-02T11:42:18.789Z,54.90
2023-09-02T11:44:52.491Z,55.13
2023-09-02T11:47:25.106Z,55.00
2023-09-02T11:49:57.665Z,54.84
2023-09-02T11:52:30.223Z,53.44
2023-09-02T11:55:14.872Z,53.97
2023-09-02T11:57:47.770Z,53.95
2023-09-02T12:00:21.931Z,53.48
2023-09-02T12:02:58.054Z,53.47
2023-09-02T12:05:30.851Z,53.01
2023-09-02T12:08:03.666Z,52.77
2023-09-02T12:10:36.138Z,52.67
2023-09-02T12:13:10.213Z,52.80
2023-09-02T12:15:43.216Z,53.04
2023-09-02T12:18:16.233Z,52.45
2023-09-02T12:20:49.967Z,52.78
2023-09-02T12:23:22.751Z,53.68
2023-09-02T12:26:04.795Z,52.52
2023-09-02T12:28:37.689Z,52.52
2023-09-02T12:31:10.270Z,52.10
2023-09-02T12:33:42.771Z,52.10
2023-09-02T12:36:15.391Z,51.87
2023-09-02T12:38:49.317Z,51.74
2023-09-02T12:41:21.877Z,50.86
2023-09-02T12:43:54.493Z,51.19
2023-09-02T12:46:27.051Z,50.66
2023-09-02T12:49:00.265Z,50.92
2023-09-02T12:51:38.282Z,51.14
2023-09-02T12:54:12.458Z,50.51
2023-09-02T12:56:44.894Z,50.68
2023-09-02T12:59:17.369Z,50.82
2023-09-02T13:01:51.945Z,50.30
2023-09-02T13:04:25.078Z,50.39
2023-09-02T13:06:57.567Z,50.01
2023-09-02T13:09:31.902Z,51.15
2023-09-02T13:12:04.745Z,50.34
2023-09-02T13:14:39.393Z,50.01
2023-09-02T13:17:12.565Z,50.74
2023-09-02T13:19:48.709Z,49.75
2023-09-02T13:22:21.300Z,49.97
2023-09-02T13:24:53.790Z,49.83
2023-09-02T13:27:29.421Z,49.68
2023-09-02T13:30:01.920Z,50.73
2023-09-02T13:32:36.266Z,50.64
2023-09-02T13:35:24.905Z,50.12
2023-09-02T13:37:59.660Z,50.63
2023-09-02T13:40:38.375Z,50.91
2023-09-02T13:43:23.583Z,50.79
2023-09-02T13:45:56.210Z,51.67
2023-09-02T13:48:29.869Z,51.30
2023-09-02T13:51:05.493Z,50.82
2023-09-02T13:53:38.424Z,51.82
2023-09-02T13:56:11.301Z,51.61
2023-09-02T13:58:44.074Z,51.42
2023-09-02T14:01:16.561Z,50.67
2023-09-02T14:03:50.053Z,50.78
2023-09-02T14:06:23.035Z,49.94
2023-09-02T14:08:56.409Z,50.03
2023-09-02T14:11:32.314Z,51.08
2023-09-02T14:14:05.533Z,50.58
2023-09-02T14:16:38.054Z,50.68
2023-09-02T14:19:10.621Z,50.10
2023-09-02T14:21:43.563Z,50.20
2023-09-02T14:24:16.074Z,49.88
2023-09-02T14:27:07.404Z,49.88
2023-09-02T14:29:40.345Z,50.66
2023-09-02T14:32:12.937Z,49.86
2023-09-02T14:34:47.773Z,49.86
2023-09-02T14:37:20.669Z,51.03
2023-09-02T14:39:53.154Z,50.85
2023-09-02T14:42:25.962Z,50.32
2023-09-02T14:44:58.913Z,50.29
2023-09-02T14:47:32.720Z,50.34
2023-09-02T14:50:05.940Z,49.55
2023-09-02T14:52:40.231Z,50.09
2023-09-02T14:55:15.885Z,49.62
2023-09-02T14:57:52.506Z,49.35
2023-09-02T15:00:25.699Z,49.15
2023-09-02T15:03:02.054Z,48.61
2023-09-02T15:05:35.419Z,48.28
2023-09-02T15:08:07.906Z,48.21
2023-09-02T15:10:40.447Z,47.48
2023-09-02T15:13:14.537Z,47.87
2023-09-02T15:15:47.296Z,48.19
2023-09-02T15:18:22.741Z,47.40
2023-09-02T15:20:56.973Z,47.92
2023-09-02T15:23:33.136Z,48.29
2023-09-02T15:26:06.233Z,47.58
2023-09-02T15:28:38.702Z,47.75
2023-09-02T15:31:13.954Z,47.94
2023-09-02T15:33:47.837Z,47.57
2023-09-02T15:36:22.545Z,48.50
2023-09-02T15:38:55.053Z,48.30
2023-09-02T15:41:27.552Z,48.72
2023-09-02T15:44:00.090Z,47.78
2023-09-02T15:46:32.629Z,48.32
2023-09-02T15:49:05.193Z,47.87
2023-09-02T15:51:37.916Z,45.77
2023-09-02T15:54:10.405Z,46.05
2023-09-02T15:56:42.903Z,45.11
2023-09-02T15:59:15.997Z,44.03
2023-09-02T16:01:48.606Z,45.00
2023-09-02T16:04:21.591Z,44.72
2023-09-02T16:06:54.098Z,45.44
2023-09-02T16:09:26.814Z,44.13
2023-09-02T16:11:59.328Z,44.64
2023-09-02T16:14:31.855Z,46.05
2023-09-02T16:17:21.451Z,44.71
2023-09-02T16:19:53.885Z,45.08
2023-09-02T16:22:26.448Z,44.09
2023-09-02T16:24:58.899Z,44.50
2023-09-02T16:27:31.396Z,44.36
2023-09-02T16:30:09.660Z,44.63
2023-09-02T16:32:42.532Z,45.21
2023-09-02T16:35:20.781Z,45.79
2023-09-02T16:37:53.310Z,45.98
2023-09-02T16:40:29.409Z,46.18
2023-09-02T16:43:02.213Z,46.07
2023-09-02T16:45:34.876Z,45.78
2023-09-02T16:48:10.436Z,46.01
2023-09-02T16:50:46.583Z,46.36
2023-09-02T16:53:19.762Z,45.65
2023-09-02T16:56:02.989Z,46.98
2023-09-02T16:58:36.750Z,47.35
2023-09-02T17:01:13.867Z,47.26
2023-09-02T17:03:52.960Z,47.30
2023-09-02T17:06:29.300Z,46.64
2023-09-02T17:09:03.437Z,47.33
2023-09-02T17:11:35.971Z,46.81
2023-09-02T17:14:09.467Z,47.33
2023-09-02T17:16:48.680Z,47.20
2023-09-02T17:19:21.387Z,47.38
2023-09-02T17:21:58.868Z,47.87
2023-09-02T17:24:31.692Z,47.97
2023-09-02T17:27:16.375Z,48.78
2023-09-02T17:29:52.635Z,48.86
2023-09-02T17:32:25.149Z,49.49
2023-09-02T17:34:57.833Z,49.89
2023-09-02T17:37:34.326Z,50.80
2023-09-02T17:40:07.327Z,50.73
2023-09-02T17:42:43.811Z,51.39
2023-09-02T17:45:16.372Z,51.79
2023-09-02T17:47:49.837Z,52.47
2023-09-02T17:50:22.955Z,52.84
2023-09-02T17:52:55.522Z,52.56
2023-09-02T17:55:28.042Z,52.81
2023-09-02T17:58:06.147Z,53.23
2023-09-02T18:00:38.632Z,53.32
2023-09-02T18:03:11.246Z,53.91
2023-09-02T18:05:43.834Z,53.83
2023-09-02T18:08:16.296Z,54.14
2023-09-02T18:10:48.744Z,54.24
2023-09-02T18:13:21.380Z,54.71
2023-09-02T18:15:53.858Z,55.22
2023-09-02T18:18:26.424Z,55.08
2023-09-02T18:20:59.056Z,54.90
2023-09-02T18:23:31.660Z,55.33
2023-09-02T18:26:04.231Z,55.56
2023-09-02T18:28:36.812Z,55.46
2023-09-02T18:31:14.581Z,56.03
2023-09-02T18:33:50.458Z,56.43
2023-09-02T18:36:26.305Z,56.40
2023-09-02T18:38:58.737Z,56.46
2023-09-02T18:41:31.269Z,56.60
2023-09-02T18:44:03.799Z,56.75
2023-09-02T18:46:36.315Z,57.03
2023-09-02T18:49:08.901Z,57.44
2023-09-02T18:51:41.375Z,57.39
2023-09-02T18:54:14.014Z,57.67
2023-09-02T18:56:46.426Z,57.95
2023-09-02T18:59:19.226Z,58.59
2023-09-02T19:01:51.860Z,58.82
2023-09-02T19:04:24.369Z,58.89
2023-09-02T19:06:56.890Z,59.59
2023-09-02T19:09:29.792Z,59.89
2023-09-02T19:12:02.308Z,60.10
2023-09-02T19:14:35.820Z,60.25
2023-09-02T19:17:08.464Z,60.13
2023-09-02T19:19:41.008Z,60.52
2023-09-02T19:22:13.547Z,60.93
2023-09-02T19:24:46.132Z,61.14
2023-09-02T19:27:18.732Z,61.77
2023-09-02T19:29:51.451Z,62.04
2023-09-02T19:32:24.018Z,62.36
2023-09-02T19:34:56.538Z,62.33
2023-09-02T19:37:29.098Z,62.46
2023-09-02T19:40:01.602Z,62.48
2023-09-02T19:42:34.055Z,63.32
2023-09-02T19:45:07.237Z,63.54
2023-09-02T19:47:39.795Z,63.92
2023-09-02T19:50:12.539Z,64.25
2023-09-02T19:52:45.152Z,63.76
2023-09-02T19:55:17.784Z,63.85
2023-09-02T19:57:50.480Z,63.73
2023-09-02T20:00:23.061Z,63.80
2023-09-02T20:02:55.554Z,64.18
2023-09-02T20:05:28.185Z,63.88
2023-09-02T20:08:00.668Z,64.02
2023-09-02T20:10:35.976Z,64.38
2023-09-02T20:13:08.789Z,64.45
2023-09-02T20:15:41.362Z,64.64
2023-09-02T20:18:13.958Z,64.87
2023-09-02T20:20:51.488Z,65.35
2023-09-02T20:23:24.146Z,65.22
2023-09-02T20:25:56.716Z,65.32
2023-09-02T20:28:29.310Z,64.64
2023-09-02T20:31:01.923Z,64.53
2023-09-02T20:33:34.439Z,64.42
2023-09-02T20:36:13.613Z,64.52
2023-09-02T20:38:46.512Z,64.03
2023-09-02T20:41:21.310Z,64.32
2023-09-02T20:43:55.000Z,64.17
2023-09-02T20:46:27.533Z,64.22
2023-09-02T20:49:00.366Z,64.17
2023-09-02T20:51:33.740Z,63.73
2023-09-02T20:54:07.448Z,63.88
2023-09-02T20:56:40.061Z,63.91
2023-09-02T20:59:12.590Z,64.25
2023-09-02T21:01:45.695Z,64.16
2023-09-02T21:04:18.435Z,64.63
2023-09-02T21:06:50.983Z,64.68
2023-09-02T21:09:23.619Z,65.12
2023-09-02T21:11:56.336Z,65.06
2023-09-02T21:14:28.801Z,64.78
2023-09-02T21:17:01.475Z,65.24
2023-09-02T21:19:38.274Z,65.09
2023-09-02T21:22:10.846Z,64.86
2023-09-02T21:24:43.322Z,65.06
2023-09-02T21:27:15.831Z,65.20
2023-09-02T21:29:48.746Z,65.70
2023-09-02T21:32:21.307Z,65.31
2023-09-02T21:34:53.991Z,65.33
2023-09-02T21:37:26.646Z,65.22
2023-09-02T21:39:59.390Z,65.30
2023-09-02T21:42:32.756Z,65.57
2023-09-02T21:45:05.926Z,65.45
2023-09-02T21:47:38.543Z,65.53
2023-09-02T21:50:11.132Z,65.40
2023-09-02T21:52:43.600Z,65.39
2023-09-02T21:55:16.322Z,65.94
2023-09-02T21:57:48.772Z,66.04
2023-09-02T22:00:21.211Z,66.23
2023-09-02T22:02:54.993Z,66.48
2023-09-02T22:05:27.716Z,66.45
2023-09-02T22:08:00.251Z,66.41
2023-09-02T22:10:33.247Z,66.70
2023-09-02T22:13:05.848Z,67.24
2023-09-02T22:15:38.333Z,67.22
2023-09-02T22:18:10.764Z,67.04
2023-09-02T22:20:43.294Z,67.19
2023-09-02T22:23:15.905Z,67.09
2023-09-02T22:25:49.395Z,67.51
2023-09-02T22:28:22.005Z,67.19
2023-09-02T22:30:55.484Z,67.35
2023-09-02T22:33:29.447Z,67.37
2023-09-02T22:36:02.704Z,67.15
2023-09-02T22:38:55.724Z,67.28
2023-09-02T22:41:28.307Z,67.73
2023-09-02T22:44:00.855Z,68.20
2023-09-02T22:46:33.607Z,68.09
2023-09-02T22:49:28.722Z,67.85
2023-09-02T22:52:01.263Z,67.81
2023-09-02T22:54:34.311Z,68.21
2023-09-02T22:57:06.846Z,67.79
2023-09-02T22:59:39.390Z,68.44
2023-09-02T23:02:11.953Z,68.11
2023-09-02T23:04:47.626Z,68.77
2023-09-02T23:07:20.070Z,68.72
2023-09-02T23:09:52.694Z,68.79
2023-09-02T23:12:25.239Z,68.54
2023-09-02T23:14:57.703Z,68.83
2023-09-02T23:17:30.267Z,68.33
2023-09-02T23:20:04.337Z,68.51
2023-09-02T23:22:37.160Z,68.20
2023-09-02T23:25:09.919Z,68.32
2023-09-02T23:27:49.868Z,68.23
2023-09-02T23:30:22.731Z,68.20
2023-09-02T23:32:55.361Z,67.97
2023-09-02T23:35:27.991Z,68.15
2023-09-02T23:38:00.473Z,67.87
2023-09-02T23:40:33.278Z,67.71
2023-09-02T23:43:05.794Z,67.48
2023-09-02T23:45:38.648Z,67.66
2023-09-02T23:48:11.156Z,67.74
2023-09-02T23:50:46.920Z,67.51
2023-09-02T23:53:19.637Z,67.66
2023-09-02T23:55:52.180Z,67.58
2023-09-02T23:58:24.752Z,67.91
